Time;durP1;ratioP1;P1;durP2;ratioP2;P2;SDS_P1;SDS_P2;PMS_P1;PMS_P2;Temp;Humidity;BMP_temperature;BMP_pressure;BME280_temperature;BME280_humidity;BME280_pressure;Samples;Min_cycle;Max_cycle;Signal;HPM_P1;HPM_P2
2023/09/07 00:00:12;;;;;;;3.73;3.40;;;15.60;98.20;;;;;;5084004;28;20635;-76
2023/09/07 00:02:41;;;;;;;3.93;3.53;;;15.70;98.00;;;;;;5084363;28;20630;-75
2023/09/07 00:05:08;;;;;;;5.40;3.23;;;15.70;98.00;;;;;;5085485;28;20644;-75
2023/09/07 00:07:36;;;;;;;5.20;4.07;;;15.60;98.10;;;;;;5084254;28;21130;-75
2023/09/07 00:10:04;;;;;;;4.90;4.10;;;15.60;98.60;;;;;;5084336;28;21214;-75
2023/09/07 00:12:31;;;;;;;4.90;4.40;;;15.60;98.70;;;;;;5085188;28;20640;-76
2023/09/07 00:14:59;;;;;;;4.33;3.93;;;15.60;98.90;;;;;;5084140;28;20633;-75
2023/09/07 00:17:26;;;;;;;4.90;4.40;;;15.50;99.30;;;;;;5085423;28;21088;-75
2023/09/07 00:19:56;;;;;;;3.50;3.23;;;15.60;98.90;;;;;;5084440;28;20628;-75
2023/09/07 00:22:23;;;;;;;4.37;3.97;;;15.50;99.40;;;;;;5084794;28;21061;-75
2023/09/07 00:24:50;;;;;;;4.70;4.30;;;15.50;99.30;;;;;;5083997;28;20629;-75
2023/09/07 00:27:16;;;;;;;3.60;3.30;;;15.50;99.40;;;;;;5084404;28;20722;-75
2023/09/07 00:29:43;;;;;;;4.40;3.57;;;15.50;99.50;;;;;;5084284;28;20656;-76
2023/09/07 00:32:10;;;;;;;4.37;3.50;;;15.40;99.20;;;;;;5084495;28;20210;-75
2023/09/07 00:34:36;;;;;;;3.30;2.97;;;15.40;99.40;;;;;;5085304;28;20628;-75
2023/09/07 00:37:05;;;;;;;5.43;4.03;;;15.40;99.30;;;;;;5084369;28;20627;-75
2023/09/07 00:39:31;;;;;;;3.80;3.33;;;15.40;99.70;;;;;;5084704;28;20617;-76
2023/09/07 00:41:58;;;;;;;4.27;3.80;;;15.30;99.70;;;;;;5084323;28;20635;-76
2023/09/07 00:44:25;;;;;;;4.63;3.60;;;15.30;99.50;;;;;;5084438;28;20631;-75
2023/09/07 00:46:52;;;;;;;5.47;3.83;;;15.30;98.80;;;;;;5084436;28;20629;-75
2023/09/07 00:49:18;;;;;;;4.17;3.77;;;15.30;99.00;;;;;;5083112;28;21235;-75
2023/09/07 00:51:46;;;;;;;3.27;2.97;;;15.30;98.80;;;;;;5085079;28;20636;-76
2023/09/07 00:54:14;;;;;;;3.73;3.40;;;15.30;98.90;;;;;;5084851;28;20628;-75
2023/09/07 00:56:42;;;;;;;4.07;3.40;;;15.30;98.80;;;;;;5083995;28;20638;-75
2023/09/07 00:59:09;;;;;;;4.10;3.33;;;15.20;98.70;;;;;;5084012;28;20627;-75
2023/09/07 01:01:36;;;;;;;4.60;4.00;;;15.20;98.80;;;;;;5083043;28;20635;-75
2023/09/07 01:04:03;;;;;;;5.10;4.60;;;15.20;98.50;;;;;;5084600;28;20635;-75
2023/09/07 01:06:33;;;;;;;4.30;3.70;;;15.20;99.10;;;;;;5084980;28;21211;-75
2023/09/07 01:09:04;;;;;;;4.70;4.13;;;15.20;99.40;;;;;;5084099;28;21915;-75
2023/09/07 01:11:38;;;;;;;4.37;3.97;;;15.20;99.40;;;;;;5087064;28;20720;-75
2023/09/07 01:14:07;;;;;;;3.80;3.50;;;15.20;99.70;;;;;;5087902;28;20628;-75
2023/09/07 01:16:35;;;;;;;4.93;4.53;;;15.20;99.90;;;;;;5087910;28;20627;-75
2023/09/07 01:19:04;;;;;;;4.77;3.97;;;15.10;99.90;;;;;;5088377;28;20613;-75
2023/09/07 01:21:36;;;;;;;4.73;3.90;;;15.10;99.90;;;;;;5088001;28;20637;-76
2023/09/07 01:24:07;;;;;;;5.20;4.50;;;15.10;99.90;;;;;;5087469;28;21089;-75
2023/09/07 01:26:35;;;;;;;3.40;3.10;;;15.10;99.60;;;;;;5087956;28;20694;-76
2023/09/07 01:29:03;;;;;;;4.60;3.50;;;15.10;99.30;;;;;;5088025;28;20655;-75
2023/09/07 01:31:31;;;;;;;3.50;3.20;;;15.10;99.30;;;;;;5087481;28;20634;-75
2023/09/07 01:33:59;;;;;;;4.10;3.67;;;15.10;99.40;;;;;;5087132;27;20669;-76
2023/09/07 01:36:27;;;;;;;6.40;4.37;;;15.00;99.40;;;;;;5087563;28;21059;-76
2023/09/07 01:38:57;;;;;;;5.33;4.20;;;15.00;99.60;;;;;;5087743;28;20674;-75
2023/09/07 01:41:24;;;;;;;6.43;3.63;;;15.00;99.60;;;;;;5087147;28;20628;-74
2023/09/07 01:43:52;;;;;;;4.57;3.83;;;15.00;99.90;;;;;;5087408;28;21036;-75
2023/09/07 01:46:20;;;;;;;4.90;3.93;;;15.00;99.90;;;;;;5087359;28;20721;-75
2023/09/07 01:48:47;;;;;;;4.13;3.73;;;14.90;99.90;;;;;;5086601;28;21529;-74
2023/09/07 01:51:14;;;;;;;3.77;3.40;;;14.90;99.90;;;;;;5086883;28;21053;-75
2023/09/07 01:53:41;;;;;;;5.23;4.27;;;15.00;99.90;;;;;;5088163;28;20612;-75
2023/09/07 01:56:09;;;;;;;5.40;4.13;;;14.90;99.90;;;;;;5086430;28;20986;-75
2023/09/07 01:58:37;;;;;;;4.30;3.90;;;14.90;99.90;;;;;;5087521;28;20615;-74
2023/09/07 02:01:03;;;;;;;4.40;3.50;;;14.90;99.90;;;;;;5085913;28;20986;-74
2023/09/07 02:03:30;;;;;;;3.80;3.50;;;14.90;99.90;;;;;;5085218;28;20942;-74
2023/09/07 02:05:57;;;;;;;4.13;3.23;;;14.90;99.80;;;;;;5087600;28;20628;-74
2023/09/07 02:08:24;;;;;;;4.77;4.37;;;14.90;99.60;;;;;;5086241;28;20666;-75
2023/09/07 02:10:51;;;;;;;3.87;3.40;;;14.90;99.70;;;;;;5086962;28;20741;-75
2023/09/07 02:13:19;;;;;;;4.57;4.10;;;14.80;99.80;;;;;;5086588;28;20631;-74
2023/09/07 02:15:47;;;;;;;5.70;4.43;;;14.80;99.80;;;;;;5086569;28;20635;-74
2023/09/07 02:18:14;;;;;;;4.70;4.30;;;14.80;99.90;;;;;;5086484;28;20793;-75
2023/09/07 02:20:42;;;;;;;4.43;3.60;;;14.80;99.90;;;;;;5086071;28;20632;-75
2023/09/07 02:23:10;;;;;;;4.70;4.30;;;14.80;99.90;;;;;;5085909;28;20642;-75
2023/09/07 02:25:37;;;;;;;4.73;4.20;;;14.70;99.90;;;;;;5086913;28;20647;-75
2023/09/07 02:28:06;;;;;;;7.37;4.37;;;14.80;99.90;;;;;;5086576;28;21261;-75
2023/09/07 02:30:35;;;;;;;4.53;3.33;;;14.80;99.90;;;;;;5085642;28;20648;-76
2023/09/07 02:33:04;;;;;;;4.50;3.83;;;14.70;99.90;;;;;;5086737;28;20845;-75
2023/09/07 02:35:31;;;;;;;4.10;3.70;;;14.70;99.90;;;;;;5086334;28;21091;-75
2023/09/07 02:37:59;;;;;;;5.13;4.13;;;14.70;99.90;;;;;;5085566;28;20785;-75
2023/09/07 02:40:27;;;;;;;4.17;3.77;;;14.70;99.90;;;;;;5085783;28;20961;-75
2023/09/07 02:42:54;;;;;;;4.53;4.03;;;14.70;99.90;;;;;;5085709;28;21006;-75
2023/09/07 02:45:22;;;;;;;5.53;3.70;;;14.70;99.90;;;;;;5087265;28;20854;-75
2023/09/07 02:47:52;;;;;;;4.80;3.67;;;14.60;99.90;;;;;;5085722;28;21185;-75
2023/09/07 02:50:19;;;;;;;4.70;3.90;;;14.60;99.90;;;;;;5085042;28;20648;-75
2023/09/07 02:52:45;;;;;;;4.37;4.00;;;14.60;99.90;;;;;;5085799;28;20635;-75
2023/09/07 02:55:12;;;;;;;3.50;3.20;;;14.50;99.90;;;;;;5086587;28;20974;-75
2023/09/07 02:57:39;;;;;;;3.40;3.10;;;14.40;99.90;;;;;;5085745;28;20621;-75
2023/09/07 03:00:10;;;;;;;3.60;3.30;;;14.40;99.90;;;;;;5084824;28;20628;-75
2023/09/07 03:02:37;;;;;;;3.90;3.30;;;14.40;99.90;;;;;;5085849;28;20637;-75
2023/09/07 03:05:06;;;;;;;4.37;3.73;;;14.40;99.90;;;;;;5086429;28;20623;-75
2023/09/07 03:07:34;;;;;;;3.40;3.10;;;14.40;99.90;;;;;;5086434;28;20648;-75
2023/09/07 03:10:01;;;;;;;3.40;3.10;;;14.30;99.90;;;;;;5085359;28;20661;-75
2023/09/07 03:12:29;;;;;;;3.33;2.90;;;14.30;99.90;;;;;;5085534;28;20632;-75
2023/09/07 03:14:56;;;;;;;4.07;3.70;;;14.40;99.90;;;;;;5085085;28;20657;-75
2023/09/07 03:17:23;;;;;;;4.23;3.40;;;14.30;99.90;;;;;;5087040;28;20885;-75
2023/09/07 03:19:49;;;;;;;3.30;3.00;;;14.30;99.90;;;;;;5086523;28;20624;-75
2023/09/07 03:22:17;;;;;;;3.37;3.10;;;14.30;99.90;;;;;;5085976;28;20612;-75
2023/09/07 03:24:44;;;;;;;3.50;3.03;;;14.30;99.90;;;;;;5085836;28;20632;-75
2023/09/07 03:27:11;;;;;;;3.70;3.40;;;14.20;99.90;;;;;;5085693;28;20631;-75
2023/09/07 03:29:39;;;;;;;4.90;4.03;;;14.20;99.90;;;;;;5085514;28;20655;-76
2023/09/07 03:32:06;;;;;;;4.30;3.40;;;14.10;99.90;;;;;;5085782;28;21255;-75
2023/09/07 03:34:33;;;;;;;4.03;3.63;;;14.20;99.90;;;;;;5085810;28;20621;-75
2023/09/07 03:37:00;;;;;;;4.10;3.70;;;14.10;99.90;;;;;;5085531;28;21184;-75
2023/09/07 03:39:28;;;;;;;4.00;3.53;;;14.10;99.90;;;;;;5084714;28;20717;-75
2023/09/07 03:41:55;;;;;;;3.77;3.40;;;14.10;99.90;;;;;;5086144;28;20985;-75
2023/09/07 03:44:21;;;;;;;5.60;3.73;;;14.10;99.90;;;;;;5086273;28;20639;-75
2023/09/07 03:46:48;;;;;;;4.83;3.90;;;14.10;99.90;;;;;;5086746;28;20651;-75
2023/09/07 03:49:15;;;;;;;4.40;3.73;;;13.90;99.90;;;;;;5083578;28;20652;-75
2023/09/07 03:51:42;;;;;;;3.50;3.20;;;14.00;99.90;;;;;;5086072;28;20624;-76
2023/09/07 03:54:08;;;;;;;3.53;3.17;;;14.00;99.90;;;;;;5085641;28;20631;-75
2023/09/07 03:56:37;;;;;;;3.40;3.10;;;14.00;99.90;;;;;;5085089;28;20635;-75
2023/09/07 03:59:03;;;;;;;2.90;2.70;;;14.00;99.90;;;;;;5085587;28;20624;-75
2023/09/07 04:01:30;;;;;;;3.60;3.30;;;14.00;99.90;;;;;;5084676;28;20635;-75
2023/09/07 04:03:57;;;;;;;4.00;3.70;;;13.90;99.90;;;;;;5085733;28;20626;-75
2023/09/07 04:06:24;;;;;;;5.43;4.20;;;13.90;99.90;;;;;;5085178;28;20639;-75
2023/09/07 04:08:51;;;;;;;3.77;2.80;;;13.90;99.90;;;;;;5085217;28;20651;-75
2023/09/07 04:11:18;;;;;;;5.17;3.70;;;13.80;99.90;;;;;;5084456;28;20667;-75
2023/09/07 04:13:46;;;;;;;5.30;3.80;;;13.80;99.90;;;;;;5083875;28;20637;-75
2023/09/07 04:16:13;;;;;;;3.23;2.93;;;13.70;99.90;;;;;;5086569;28;20632;-75
2023/09/07 04:18:39;;;;;;;5.30;3.90;;;13.70;99.90;;;;;;5085475;28;20674;-75
2023/09/07 04:21:07;;;;;;;5.83;4.23;;;13.70;99.90;;;;;;5084320;28;20991;-75
2023/09/07 04:23:34;;;;;;;5.00;3.90;;;13.60;99.90;;;;;;5084815;28;20643;-75
2023/09/07 04:26:12;;;;;;;7.90;4.37;;;13.60;99.90;;;;;;5085361;28;20632;-75
2023/09/07 04:28:39;;;;;;;5.10;4.33;;;13.60;99.90;;;;;;5086059;28;20632;-75
2023/09/07 04:31:07;;;;;;;4.43;3.90;;;13.60;99.90;;;;;;5084636;28;20663;-74
2023/09/07 04:33:35;;;;;;;3.70;3.20;;;13.70;99.90;;;;;;5084814;28;20632;-75
2023/09/07 04:36:10;;;;;;;4.63;3.80;;;13.60;99.90;;;;;;5085151;28;20621;-75
2023/09/07 04:38:37;;;;;;;3.67;3.10;;;13.60;99.90;;;;;;5084807;28;20647;-75
2023/09/07 04:41:08;;;;;;;4.57;4.10;;;13.60;99.90;;;;;;5084205;28;20612;-75
2023/09/07 04:43:35;;;;;;;5.40;4.67;;;13.60;99.90;;;;;;5085483;28;20661;-75
2023/09/07 04:46:02;;;;;;;6.03;4.20;;;13.60;99.90;;;;;;5087416;28;21480;-74
2023/09/07 04:48:30;;;;;;;6.00;4.27;;;13.50;99.90;;;;;;5089687;28;21074;-74
2023/09/07 04:51:00;;;;;;;3.63;3.33;;;13.60;99.90;;;;;;5088304;28;20656;-75
2023/09/07 04:53:30;;;;;;;4.43;3.50;;;13.70;99.90;;;;;;5087142;28;20633;-74
2023/09/07 04:55:57;;;;;;;4.33;3.93;;;13.70;99.90;;;;;;5088903;28;21200;-74
2023/09/07 04:58:24;;;;;;;4.13;3.73;;;13.80;99.90;;;;;;5087901;28;22149;-74
2023/09/07 05:00:51;;;;;;;5.47;4.10;;;13.70;99.90;;;;;;5088695;28;20640;-73
2023/09/07 05:03:18;;;;;;;5.50;3.90;;;13.70;99.90;;;;;;5089059;28;20996;-72
2023/09/07 05:05:51;;;;;;;4.63;3.90;;;13.60;99.90;;;;;;5088842;28;20621;-73
2023/09/07 05:08:18;;;;;;;5.43;3.67;;;13.60;99.90;;;;;;5087534;28;20646;-72
2023/09/07 05:10:45;;;;;;;5.73;5.20;;;13.60;99.90;;;;;;5088294;28;20768;-73
2023/09/07 05:13:12;;;;;;;6.10;4.93;;;13.60;99.90;;;;;;5087974;28;20617;-72
2023/09/07 05:15:48;;;;;;;7.67;5.23;;;13.50;99.90;;;;;;5088457;28;20629;-72
2023/09/07 05:18:15;;;;;;;3.83;3.53;;;13.60;99.90;;;;;;5089069;28;20989;-73
2023/09/07 05:20:41;;;;;;;7.03;4.47;;;13.60;99.90;;;;;;5087430;28;21316;-72
2023/09/07 05:23:10;;;;;;;6.73;3.90;;;13.70;99.90;;;;;;5088221;28;20644;-72
2023/09/07 05:25:44;;;;;;;4.77;4.33;;;13.60;99.90;;;;;;5087431;28;20632;-72
2023/09/07 05:28:11;;;;;;;5.40;3.60;;;13.70;99.90;;;;;;5088866;28;21070;-73
2023/09/07 05:30:37;;;;;;;7.27;4.80;;;13.60;99.90;;;;;;5087761;28;20682;-73
2023/09/07 05:33:05;;;;;;;7.27;4.43;;;13.70;99.90;;;;;;5088348;28;20638;-73
2023/09/07 05:35:33;;;;;;;5.43;4.77;;;13.70;99.90;;;;;;5088491;28;20624;-73
2023/09/07 05:37:59;;;;;;;5.70;4.70;;;13.80;99.90;;;;;;5087861;28;20640;-72
2023/09/07 05:40:28;;;;;;;6.03;4.00;;;13.80;99.90;;;;;;5087969;28;20616;-75
2023/09/07 05:42:55;;;;;;;13.13;4.43;;;13.90;99.90;;;;;;5088063;28;20625;-74
2023/09/07 05:45:22;;;;;;;5.67;4.90;;;13.90;99.90;;;;;;5087174;28;20663;-74
2023/09/07 05:47:48;;;;;;;6.70;5.80;;;14.00;99.90;;;;;;5086885;28;20628;-75
2023/09/07 05:50:15;;;;;;;5.63;5.13;;;14.20;99.90;;;;;;5086363;28;20652;-75
2023/09/07 05:52:42;;;;;;;8.57;6.13;;;14.30;99.90;;;;;;5087120;28;21288;-75
2023/09/07 05:55:10;;;;;;;7.37;5.33;;;14.40;99.90;;;;;;5087541;28;20624;-74
2023/09/07 05:57:38;;;;;;;6.80;5.00;;;14.50;99.90;;;;;;5088342;28;21229;-74
2023/09/07 06:00:06;;;;;;;17.67;6.00;;;14.60;99.90;;;;;;5087168;28;22134;-74
2023/09/07 06:02:33;;;;;;;7.83;6.30;;;14.70;99.90;;;;;;5086253;28;21343;-74
2023/09/07 06:05:00;;;;;;;9.17;6.53;;;14.80;99.90;;;;;;5087236;28;20625;-74
2023/09/07 06:07:27;;;;;;;8.10;6.23;;;15.00;99.90;;;;;;5088137;28;21065;-74
2023/09/07 06:09:53;;;;;;;8.33;6.83;;;15.10;99.90;;;;;;5085325;28;20671;-74
2023/09/07 06:12:20;;;;;;;7.37;6.40;;;15.30;99.90;;;;;;5087641;28;20629;-74
2023/09/07 06:14:48;;;;;;;6.43;5.73;;;15.40;99.90;;;;;;5087161;28;20631;-74
2023/09/07 06:17:15;;;;;;;8.57;5.80;;;15.50;99.90;;;;;;5087087;28;20686;-74
2023/09/07 06:19:42;;;;;;;11.07;5.20;;;15.70;99.90;;;;;;5086673;28;21222;-74
2023/09/07 06:22:09;;;;;;;7.07;5.27;;;15.80;99.90;;;;;;5087206;28;20790;-75
2023/09/07 06:24:36;;;;;;;8.20;6.23;;;16.00;99.90;;;;;;5087324;28;20635;-74
2023/09/07 06:27:03;;;;;;;9.83;5.57;;;16.10;99.90;;;;;;5086938;28;20633;-74
2023/09/07 06:29:29;;;;;;;6.83;5.40;;;16.20;99.90;;;;;;5085984;28;20661;-74
2023/09/07 06:31:58;;;;;;;7.00;6.30;;;16.40;99.90;;;;;;5087397;28;20754;-74
2023/09/07 06:34:25;;;;;;;6.60;5.93;;;16.40;99.90;;;;;;5086585;28;20632;-74
2023/09/07 06:36:52;;;;;;;5.33;4.83;;;16.60;99.90;;;;;;5086670;28;21005;-75
2023/09/07 06:39:19;;;;;;;5.20;4.70;;;16.70;99.90;;;;;;5080682;28;20621;-74
2023/09/07 06:41:47;;;;;;;5.50;5.00;;;16.70;99.90;;;;;;5086468;28;20627;-74
2023/09/07 06:44:14;;;;;;;6.17;5.10;;;16.90;99.90;;;;;;5086923;28;20628;-74
2023/09/07 06:46:41;;;;;;;5.50;4.90;;;17.10;99.90;;;;;;5087029;28;20624;-74
2023/09/07 06:49:10;;;;;;;6.17;4.70;;;17.20;99.90;;;;;;5086276;28;20640;-74
2023/09/07 06:51:37;;;;;;;4.93;4.07;;;17.30;99.90;;;;;;5085802;28;21793;-74
2023/09/07 06:54:04;;;;;;;6.03;5.27;;;17.40;99.90;;;;;;5086694;28;20624;-74
2023/09/07 06:56:33;;;;;;;6.37;5.73;;;17.50;99.90;;;;;;5086115;28;20663;-74
2023/09/07 06:59:00;;;;;;;5.63;4.80;;;17.60;99.90;;;;;;5086079;28;20986;-74
2023/09/07 07:01:26;;;;;;;7.13;5.27;;;17.70;99.90;;;;;;5084313;28;20628;-74
2023/09/07 07:03:54;;;;;;;4.87;4.30;;;17.70;99.90;;;;;;5086524;28;20750;-74
2023/09/07 07:06:22;;;;;;;5.50;5.10;;;17.80;99.90;;;;;;5085948;28;21267;-75
2023/09/07 07:08:48;;;;;;;5.40;4.63;;;18.00;99.70;;;;;;5083720;28;20649;-75
2023/09/07 07:11:15;;;;;;;5.10;4.60;;;18.10;99.60;;;;;;5085513;28;20660;-74
2023/09/07 07:13:42;;;;;;;5.90;5.27;;;18.20;99.60;;;;;;5083462;28;21635;-74
2023/09/07 07:16:09;;;;;;;9.57;5.57;;;18.30;98.90;;;;;;5086043;28;20650;-75
2023/09/07 07:18:36;;;;;;;6.27;4.93;;;18.40;99.10;;;;;;5086563;28;20627;-75
2023/09/07 07:21:03;;;;;;;5.97;5.33;;;18.60;98.40;;;;;;5085439;28;21310;-74
2023/09/07 07:23:31;;;;;;;7.90;5.27;;;18.50;98.30;;;;;;5080677;28;21014;-74
2023/09/07 07:25:58;;;;;;;6.97;5.50;;;18.60;98.30;;;;;;5085096;28;20631;-75
2023/09/07 07:28:25;;;;;;;6.00;5.03;;;18.80;97.40;;;;;;5083426;28;20619;-75
2023/09/07 07:30:53;;;;;;;5.57;4.93;;;18.90;97.70;;;;;;5084346;28;20667;-74
2023/09/07 07:33:20;;;;;;;6.20;4.70;;;19.10;97.10;;;;;;5085046;28;20669;-74
2023/09/07 07:35:47;;;;;;;5.37;4.87;;;19.00;97.00;;;;;;5085273;28;20635;-74
2023/09/07 07:38:15;;;;;;;5.53;4.73;;;19.00;97.00;;;;;;5083851;28;20628;-75
2023/09/07 07:40:44;;;;;;;6.30;5.70;;;19.10;97.30;;;;;;5084502;28;20635;-74
2023/09/07 07:43:13;;;;;;;5.83;4.83;;;19.20;96.80;;;;;;5085413;28;20632;-74
2023/09/07 07:45:39;;;;;;;7.40;5.63;;;19.20;97.00;;;;;;5084313;28;20631;-75
2023/09/07 07:48:07;;;;;;;10.43;6.10;;;19.20;96.50;;;;;;5084587;28;21121;-74
2023/09/07 07:50:38;;;;;;;6.33;4.63;;;19.50;96.40;;;;;;5084088;28;21250;-74
2023/09/07 07:53:06;;;;;;;6.40;5.80;;;19.40;96.70;;;;;;5084193;28;20707;-74
2023/09/07 07:55:38;;;;;;;5.43;4.97;;;19.40;96.20;;;;;;5084363;28;20750;-74
2023/09/07 07:58:07;;;;;;;9.17;6.43;;;19.60;96.60;;;;;;5084307;28;21153;-75
2023/09/07 08:00:34;;;;;;;5.60;4.63;;;19.70;96.00;;;;;;5083495;28;20824;-74
2023/09/07 08:03:02;;;;;;;5.70;4.67;;;19.70;95.70;;;;;;5084124;28;20624;-74
2023/09/07 08:05:28;;;;;;;6.57;5.23;;;19.90;96.20;;;;;;5084298;28;20645;-75
2023/09/07 08:07:56;;;;;;;6.00;5.40;;;20.00;95.40;;;;;;5082969;28;20632;-75
2023/09/07 08:10:24;;;;;;;5.83;5.30;;;20.10;96.00;;;;;;5084121;28;20741;-75
2023/09/07 08:12:54;;;;;;;6.20;5.33;;;20.20;95.00;;;;;;5084422;28;20682;-74
2023/09/07 08:15:24;;;;;;;5.70;5.20;;;20.30;95.20;;;;;;5084644;28;20613;-75
2023/09/07 08:17:51;;;;;;;5.87;5.37;;;20.60;94.80;;;;;;5084346;28;20698;-74
2023/09/07 08:20:18;;;;;;;6.57;5.43;;;20.70;94.30;;;;;;5085261;28;20628;-74
2023/09/07 08:22:45;;;;;;;5.47;4.93;;;20.70;94.50;;;;;;5088437;28;20627;-74
2023/09/07 08:25:13;;;;;;;6.83;6.13;;;20.80;94.50;;;;;;5087848;28;20650;-74
2023/09/07 08:27:44;;;;;;;6.50;5.90;;;20.90;94.00;;;;;;5087849;28;21279;-74
2023/09/07 08:30:15;;;;;;;6.27;5.07;;;20.90;93.80;;;;;;5087533;28;20631;-74
2023/09/07 08:32:43;;;;;;;6.70;5.50;;;20.80;94.30;;;;;;5088906;27;20624;-75
2023/09/07 08:35:12;;;;;;;6.77;5.53;;;20.90;93.40;;;;;;5088618;28;20741;-75
2023/09/07 08:37:39;;;;;;;5.90;4.87;;;21.00;93.80;;;;;;5086151;28;20851;-74
2023/09/07 08:40:08;;;;;;;7.97;6.37;;;21.10;93.90;;;;;;5086816;28;20619;-74
2023/09/07 08:42:37;;;;;;;5.20;4.80;;;21.30;93.60;;;;;;5088383;28;20628;-75
2023/09/07 08:45:06;;;;;;;8.80;5.63;;;21.40;94.00;;;;;;5088242;28;21008;-75
2023/09/07 08:47:34;;;;;;;5.43;4.93;;;21.50;92.80;;;;;;5088080;28;20635;-75
2023/09/07 08:50:06;;;;;;;8.07;6.10;;;21.20;93.90;;;;;;5086991;28;20641;-75
2023/09/07 08:52:33;;;;;;;8.23;6.20;;;21.50;93.50;;;;;;5087637;28;21198;-75
2023/09/07 08:55:00;;;;;;;5.97;5.57;;;21.70;92.90;;;;;;5089510;28;20614;-75
2023/09/07 08:57:30;;;;;;;5.53;5.00;;;21.60;93.90;;;;;;5089061;28;21278;-75
2023/09/07 08:59:57;;;;;;;5.90;5.20;;;21.70;93.40;;;;;;5088370;28;22561;-75
2023/09/07 09:02:24;;;;;;;5.90;5.20;;;21.80;93.60;;;;;;5086855;28;20647;-75
2023/09/07 09:04:52;;;;;;;6.03;5.27;;;22.00;93.50;;;;;;5088246;28;20623;-75
2023/09/07 09:07:20;;;;;;;6.03;5.47;;;21.90;93.70;;;;;;5087379;28;21028;-75
2023/09/07 09:09:47;;;;;;;6.77;5.43;;;22.10;92.90;;;;;;5084432;28;20723;-75
2023/09/07 09:12:14;;;;;;;7.67;5.47;;;22.30;92.70;;;;;;5088161;28;20660;-75
2023/09/07 09:14:44;;;;;;;11.03;5.97;;;22.40;92.00;;;;;;5087955;28;20628;-75
2023/09/07 09:17:13;;;;;;;6.67;5.27;;;22.30;92.10;;;;;;5088099;28;20633;-75
2023/09/07 09:19:41;;;;;;;6.63;5.93;;;22.50;92.10;;;;;;5086608;28;20626;-74
2023/09/07 09:22:08;;;;;;;5.90;5.30;;;22.50;91.90;;;;;;5084988;28;20624;-74
2023/09/07 09:24:36;;;;;;;5.67;5.17;;;22.50;92.60;;;;;;5087741;28;20624;-74
2023/09/07 09:27:04;;;;;;;6.50;5.90;;;22.50;91.90;;;;;;5087811;28;20635;-74
2023/09/07 09:29:33;;;;;;;5.33;4.90;;;22.60;92.20;;;;;;5087609;28;20631;-74
2023/09/07 09:32:04;;;;;;;6.37;5.73;;;22.80;91.70;;;;;;5087816;28;21139;-74
2023/09/07 09:34:36;;;;;;;6.10;5.50;;;22.70;92.60;;;;;;5087897;28;20691;-74
2023/09/07 09:37:03;;;;;;;7.27;6.30;;;22.70;92.30;;;;;;5088071;28;21191;-74
2023/09/07 09:39:30;;;;;;;6.10;5.60;;;22.80;92.40;;;;;;5087477;28;20640;-74
2023/09/07 09:41:59;;;;;;;5.27;4.83;;;23.10;91.40;;;;;;5086927;28;20625;-74
2023/09/07 09:44:26;;;;;;;6.60;5.97;;;23.10;91.30;;;;;;5087889;28;21420;-74
2023/09/07 09:46:54;;;;;;;5.67;5.17;;;23.00;91.40;;;;;;5087710;28;20620;-74
2023/09/07 09:49:22;;;;;;;5.73;5.23;;;23.20;92.20;;;;;;5087208;28;20626;-74
2023/09/07 09:51:50;;;;;;;5.93;5.43;;;23.40;90.90;;;;;;5087689;28;20648;-74
2023/09/07 09:54:17;;;;;;;6.73;5.97;;;23.40;91.20;;;;;;5086868;28;20631;-74
2023/09/07 09:56:45;;;;;;;7.10;5.73;;;23.50;91.00;;;;;;5087823;28;20991;-74
2023/09/07 09:59:14;;;;;;;5.13;4.70;;;23.60;90.40;;;;;;5087280;28;20650;-74
2023/09/07 10:01:45;;;;;;;5.30;4.87;;;23.50;90.30;;;;;;5086595;28;20630;-74
2023/09/07 10:04:15;;;;;;;6.53;5.03;;;23.70;91.00;;;;;;5087855;28;20632;-75
2023/09/07 10:06:52;;;;;;;5.90;5.40;;;23.70;90.50;;;;;;5085696;28;20629;-74
2023/09/07 10:09:19;;;;;;;6.57;5.00;;;23.80;90.40;;;;;;5084119;28;20642;-74
2023/09/07 10:11:52;;;;;;;6.77;6.17;;;24.00;90.00;;;;;;5086459;28;20648;-74
2023/09/07 10:14:21;;;;;;;5.70;5.20;;;24.00;90.40;;;;;;5087270;28;21796;-75
2023/09/07 10:16:51;;;;;;;6.47;5.87;;;24.10;90.60;;;;;;5087205;28;20991;-74
2023/09/07 10:19:19;;;;;;;6.23;5.67;;;24.00;90.20;;;;;;5086681;28;20638;-75
2023/09/07 10:21:46;;;;;;;7.37;6.00;;;23.90;91.10;;;;;;5086445;28;20628;-75
2023/09/07 10:24:24;;;;;;;10.07;5.43;;;24.20;90.50;;;;;;5086951;28;20613;-75
2023/09/07 10:26:57;;;;;;;6.17;5.67;;;24.30;90.90;;;;;;5088054;28;20705;-75
2023/09/07 10:29:26;;;;;;;8.20;5.80;;;24.40;90.70;;;;;;5085611;28;20672;-75
2023/09/07 10:31:53;;;;;;;6.23;5.67;;;24.50;90.10;;;;;;5086669;28;20779;-75
2023/09/07 10:34:22;;;;;;;7.23;5.30;;;24.60;90.50;;;;;;5086688;28;20623;-75
2023/09/07 10:36:52;;;;;;;5.43;4.93;;;24.70;89.60;;;;;;5085658;28;20627;-75
2023/09/07 10:39:19;;;;;;;7.03;6.37;;;24.80;90.00;;;;;;5085392;28;20711;-75
2023/09/07 10:41:46;;;;;;;6.67;5.53;;;24.80;89.20;;;;;;5087115;28;20669;-75
2023/09/07 10:44:13;;;;;;;5.80;5.20;;;25.00;90.20;;;;;;5086240;28;20633;-75
2023/09/07 10:46:42;;;;;;;5.60;5.13;;;24.90;90.00;;;;;;5086608;28;21203;-76
2023/09/07 10:49:11;;;;;;;7.13;5.43;;;25.00;90.30;;;;;;5085248;28;21083;-76
2023/09/07 10:51:44;;;;;;;6.43;5.83;;;25.10;90.60;;;;;;5085693;28;20655;-76
2023/09/07 10:54:23;;;;;;;7.20;6.50;;;25.20;88.60;;;;;;5086658;28;20634;-75
2023/09/07 10:56:51;;;;;;;7.83;5.53;;;25.20;88.10;;;;;;5086321;28;20622;-75
2023/09/07 10:59:18;;;;;;;6.20;5.60;;;25.40;88.50;;;;;;5086157;28;20634;-74
2023/09/07 11:01:48;;;;;;;6.10;5.50;;;25.50;87.50;;;;;;5086846;28;21037;-74
2023/09/07 11:04:17;;;;;;;5.93;5.23;;;25.50;86.00;;;;;;5086106;28;20717;-74
2023/09/07 11:06:44;;;;;;;6.90;5.43;;;25.50;86.40;;;;;;5087081;28;20632;-75
2023/09/07 11:09:11;;;;;;;5.20;4.80;;;25.60;85.60;;;;;;5084775;28;20637;-75
2023/09/07 11:11:38;;;;;;;5.83;5.30;;;25.80;85.50;;;;;;5086262;28;20659;-75
2023/09/07 11:14:05;;;;;;;7.00;5.23;;;25.50;86.70;;;;;;5084737;28;20624;-75
2023/09/07 11:16:34;;;;;;;5.67;5.10;;;25.70;86.60;;;;;;5084704;28;21212;-75
2023/09/07 11:19:05;;;;;;;5.90;4.93;;;25.80;84.10;;;;;;5084059;28;21807;-74
2023/09/07 11:21:34;;;;;;;5.73;5.23;;;25.90;83.90;;;;;;5083157;28;21005;-74
2023/09/07 11:24:04;;;;;;;7.83;6.03;;;26.00;85.10;;;;;;5085332;28;20630;-75
2023/09/07 11:26:41;;;;;;;5.40;4.73;;;26.20;85.30;;;;;;5086053;28;20790;-74
2023/09/07 11:29:07;;;;;;;6.07;5.57;;;26.10;85.00;;;;;;5086263;28;20656;-73
2023/09/07 11:31:34;;;;;;;6.07;5.57;;;26.30;84.30;;;;;;5085549;28;20667;-74
2023/09/07 11:34:01;;;;;;;6.43;5.27;;;26.60;83.10;;;;;;5086321;28;20621;-75
2023/09/07 11:36:30;;;;;;;5.40;4.90;;;26.70;82.60;;;;;;5086244;28;20651;-74
2023/09/07 11:38:57;;;;;;;6.97;5.90;;;26.90;81.30;;;;;;5086141;28;20613;-74
2023/09/07 11:41:24;;;;;;;5.60;5.20;;;27.00;82.00;;;;;;5085781;28;20635;-75
2023/09/07 11:43:53;;;;;;;5.77;5.30;;;27.30;81.50;;;;;;5086436;28;20617;-74
2023/09/07 11:46:19;;;;;;;5.27;4.87;;;27.50;80.70;;;;;;5086845;28;20652;-74
2023/09/07 11:48:46;;;;;;;5.30;4.90;;;27.30;79.40;;;;;;5085335;28;20613;-73
2023/09/07 11:51:13;;;;;;;5.50;5.10;;;27.40;79.80;;;;;;5082677;28;20653;-73
2023/09/07 11:53:41;;;;;;;5.90;5.40;;;27.40;79.10;;;;;;5083793;28;20627;-72
2023/09/07 11:56:08;;;;;;;5.83;5.33;;;27.20;79.00;;;;;;5085502;28;21217;-71
2023/09/07 11:58:34;;;;;;;5.50;4.90;;;26.90;78.60;;;;;;5084242;28;20634;-72
2023/09/07 12:01:01;;;;;;;5.10;4.70;;;26.80;79.40;;;;;;5084988;28;20631;-71
2023/09/07 12:03:30;;;;;;;5.90;4.97;;;26.80;79.00;;;;;;5085272;28;20617;-72
2023/09/07 12:05:56;;;;;;;5.60;5.07;;;26.60;79.50;;;;;;5083654;28;20632;-72
2023/09/07 12:08:23;;;;;;;6.17;5.57;;;26.60;80.00;;;;;;5084745;28;20642;-71
2023/09/07 12:10:51;;;;;;;5.43;4.93;;;26.50;81.30;;;;;;5085038;28;21062;-72
2023/09/07 12:13:18;;;;;;;6.00;5.50;;;26.40;81.60;;;;;;5085247;28;20657;-72
2023/09/07 12:15:45;;;;;;;6.87;5.00;;;26.10;83.70;;;;;;5085197;28;21986;-72
2023/09/07 12:18:12;;;;;;;6.70;5.50;;;26.10;84.20;;;;;;5083784;28;21002;-72
2023/09/07 12:20:38;;;;;;;6.77;5.83;;;26.30;82.50;;;;;;5085211;28;20633;-72
2023/09/07 12:23:05;;;;;;;13.93;5.13;;;26.40;80.10;;;;;;5084637;28;20663;-72
2023/09/07 12:25:32;;;;;;;7.60;5.60;;;26.30;82.30;;;;;;5085597;28;20627;-72
2023/09/07 12:28:00;;;;;;;4.93;4.53;;;26.40;81.80;;;;;;5085111;28;21676;-72
2023/09/07 12:30:28;;;;;;;6.30;5.80;;;26.30;81.30;;;;;;5083055;28;21432;-72
2023/09/07 12:32:55;;;;;;;5.50;5.00;;;26.30;81.70;;;;;;5083697;28;20662;-72
2023/09/07 12:35:22;;;;;;;6.60;5.23;;;26.50;82.50;;;;;;5083463;28;20966;-72
2023/09/07 12:37:49;;;;;;;5.93;5.43;;;26.60;80.50;;;;;;5085132;28;20630;-72
2023/09/07 12:40:15;;;;;;;5.50;5.00;;;26.50;80.20;;;;;;5083997;28;20625;-72
2023/09/07 12:42:43;;;;;;;6.20;5.60;;;26.50;81.10;;;;;;5084492;28;21290;-72
2023/09/07 12:45:12;;;;;;;6.90;5.50;;;26.50;80.40;;;;;;5083988;28;21159;-72
2023/09/07 12:47:41;;;;;;;5.83;5.33;;;26.50;80.50;;;;;;5084954;28;21014;-73